createdAt,value
2019-01-26T00:01:34.279Z,100500.28
2019-01-26T00:04:03.197Z,100500.20
2019-01-26T00:06:32.188Z,100481.94
2019-01-26T00:09:01.488Z,100479.40
2019-01-26T00:11:30.377Z,100484.72
2019-01-26T00:13:59.374Z,100481.70
2019-01-26T00:16:28.363Z,100472.17
2019-01-26T00:18:56.991Z,100475.67
2019-01-26T00:21:25.681Z,100484.93
2019-01-26T00:23:54.633Z,100488.73
2019-01-26T00:26:23.624Z,100487.11
2019-01-26T00:28:52.266Z,100488.37
2019-01-26T00:31:20.992Z,100479.85
2019-01-26T00:33:49.990Z,100480.83
2019-01-26T00:36:18.981Z,100462.47
2019-01-26T00:38:47.872Z,100463.60
2019-01-26T00:41:16.870Z,100443.83
2019-01-26T00:43:45.876Z,100437.41
2019-01-26T00:46:14.857Z,100433.67
2019-01-26T00:48:43.531Z,100437.41
2019-01-26T00:51:17.095Z,100440.73
2019-01-26T00:53:42.981Z,100426.52
2019-01-26T00:56:12.056Z,100426.46
2019-01-26T00:58:41.058Z,100419.38
2019-01-26T01:01:10.154Z,100408.41
2019-01-26T01:03:39.226Z,100391.42
2019-01-26T01:06:07.973Z,100379.05
2019-01-26T01:08:37.030Z,100379.05
2019-01-26T01:11:05.752Z,100360.54
2019-01-26T01:13:34.709Z,100352.99
2019-01-26T01:16:03.907Z,100361.59
2019-01-26T01:18:32.710Z,100359.60
2019-01-26T01:21:01.897Z,100362.29
2019-01-26T01:23:30.702Z,100353.15
2019-01-26T01:25:59.678Z,100344.33
2019-01-26T01:28:28.671Z,100347.73
2019-01-26T01:30:58.075Z,100344.98
2019-01-26T01:33:36.828Z,100343.78
2019-01-26T01:36:05.556Z,100344.25
2019-01-26T01:38:34.578Z,100343.45
2019-01-26T01:41:03.205Z,100336.44
2019-01-26T01:43:32.153Z,100327.02
2019-01-26T01:46:00.782Z,100332.77
2019-01-26T01:48:30.038Z,100330.23
2019-01-26T01:50:59.031Z,100327.53
2019-01-26T01:53:28.040Z,100321.18
2019-01-26T01:55:57.021Z,100315.44
2019-01-26T01:58:25.684Z,100307.87
2019-01-26T02:00:54.700Z,100310.02
2019-01-26T02:03:23.731Z,100313.98
2019-01-26T02:05:52.469Z,100307.86
2019-01-26T02:08:21.375Z,100306.59
2019-01-26T02:10:50.097Z,100298.96
2019-01-26T02:13:18.747Z,100299.50
2019-01-26T02:15:47.639Z,100299.24
2019-01-26T02:18:16.278Z,100295.56
2019-01-26T02:20:44.986Z,100285.19
2019-01-26T02:23:13.902Z,100287.00
2019-01-26T02:25:42.850Z,100282.31
2019-01-26T02:28:11.471Z,100271.00
2019-01-26T02:30:40.470Z,100274.92
2019-01-26T02:33:09.113Z,100277.59
2019-01-26T02:35:37.823Z,100276.27
2019-01-26T02:38:06.761Z,100276.73
2019-01-26T02:40:35.909Z,100267.97
2019-01-26T02:43:04.548Z,100262.00
2019-01-26T02:45:33.297Z,100270.58
2019-01-26T02:48:02.202Z,100272.05
2019-01-26T02:50:30.904Z,100254.24
2019-01-26T02:52:59.647Z,100260.30
2019-01-26T02:55:28.571Z,100255.21
2019-01-26T02:57:57.564Z,100254.01
2019-01-26T03:00:26.291Z,100247.58
2019-01-26T03:02:55.549Z,100256.55
2019-01-26T03:05:24.212Z,100260.17
2019-01-26T03:07:52.895Z,100257.22
2019-01-26T03:10:23.041Z,100254.52
2019-01-26T03:12:52.041Z,100254.58
2019-01-26T03:15:22.027Z,100252.44
2019-01-26T03:17:51.251Z,100246.61
2019-01-26T03:20:19.946Z,100252.44
2019-01-26T03:22:49.245Z,100254.91
2019-01-26T03:25:18.260Z,100254.27
2019-01-26T03:27:47.123Z,100250.52
2019-01-26T03:30:18.252Z,100249.34
2019-01-26T03:32:46.919Z,100244.94
2019-01-26T03:35:15.702Z,100239.97
2019-01-26T03:37:44.417Z,100233.74
2019-01-26T03:40:14.362Z,100233.19
2019-01-26T03:42:43.133Z,100233.83
2019-01-26T03:45:13.054Z,100225.33
2019-01-26T03:47:41.952Z,100221.78
2019-01-26T03:50:11.536Z,100224.27
2019-01-26T03:52:40.524Z,100220.77
2019-01-26T03:55:10.884Z,100218.22
2019-01-26T03:57:39.966Z,100216.81
2019-01-26T04:00:18.260Z,100218.09
2019-01-26T04:02:47.284Z,100210.18
2019-01-26T04:05:16.575Z,100208.50
2019-01-26T04:07:45.671Z,100198.20
2019-01-26T04:10:14.501Z,100197.61
2019-01-26T04:12:43.285Z,100195.31
2019-01-26T04:15:13.057Z,100186.87
2019-01-26T04:17:42.463Z,100192.36
2019-01-26T04:20:13.983Z,100190.45
2019-01-26T04:22:42.715Z,100183.86
2019-01-26T04:25:11.807Z,100183.45
2019-01-26T04:27:40.476Z,100184.48
2019-01-26T04:30:12.345Z,100182.00
2019-01-26T04:32:41.009Z,100182.13
2019-01-26T04:35:09.975Z,100181.10
2019-01-26T04:37:39.019Z,100179.05
2019-01-26T04:40:10.501Z,100177.84
2019-01-26T04:42:39.614Z,100175.42
2019-01-26T04:45:11.886Z,100168.34
2019-01-26T04:47:40.500Z,100167.06
2019-01-26T04:50:11.565Z,100159.15
2019-01-26T04:52:40.459Z,100152.72
2019-01-26T04:55:11.398Z,100154.00
2019-01-26T04:57:40.508Z,100147.29
2019-01-26T05:00:13.861Z,100152.66
2019-01-26T05:02:42.495Z,100150.23
2019-01-26T05:05:11.408Z,100148.44
2019-01-26T05:07:40.028Z,100147.70
2019-01-26T05:10:10.707Z,100146.42
2019-01-26T05:12:39.344Z,100137.05
2019-01-26T05:15:09.081Z,100128.08
2019-01-26T05:17:39.503Z,100137.98
2019-01-26T05:20:11.354Z,100129.81
2019-01-26T05:22:40.017Z,100124.84
2019-01-26T05:25:09.053Z,100128.20
2019-01-26T05:27:37.732Z,100123.69
2019-01-26T05:30:10.007Z,100129.59
2019-01-26T05:32:38.854Z,100127.52
2019-01-26T05:35:07.651Z,100131.61
2019-01-26T05:37:36.882Z,100133.62
2019-01-26T05:40:07.924Z,100127.84
2019-01-26T05:42:36.890Z,100130.64
2019-01-26T05:45:07.125Z,100119.75
2019-01-26T05:47:35.805Z,100121.83
2019-01-26T05:50:06.562Z,100121.89
2019-01-26T05:52:35.454Z,100116.45
2019-01-26T05:55:04.730Z,100122.93
2019-01-26T05:57:33.654Z,100120.27
2019-01-26T06:00:02.370Z,100120.45
2019-01-26T06:02:31.949Z,100118.77
2019-01-26T06:05:00.595Z,100125.64
2019-01-26T06:07:29.516Z,100124.89
2019-01-26T06:09:58.266Z,100121.25
2019-01-26T06:12:27.293Z,100111.00
2019-01-26T06:14:56.608Z,100111.41
2019-01-26T06:17:25.350Z,100124.61
2019-01-26T06:19:54.007Z,100116.09
2019-01-26T06:22:22.978Z,100125.13
2019-01-26T06:24:51.867Z,100126.33
2019-01-26T06:27:20.759Z,100126.80
2019-01-26T06:29:49.959Z,100117.77
2019-01-26T06:32:18.601Z,100109.77
2019-01-26T06:34:47.531Z,100109.25
2019-01-26T06:37:16.176Z,100100.97
2019-01-26T06:39:45.517Z,100102.94
2019-01-26T06:42:14.180Z,100102.13
2019-01-26T06:44:43.403Z,100092.88
2019-01-26T06:47:12.029Z,100089.86
2019-01-26T06:49:40.988Z,100089.45
2019-01-26T06:52:09.727Z,100089.05
2019-01-26T06:54:38.348Z,100089.98
2019-01-26T06:57:07.122Z,100092.17
2019-01-26T06:59:35.852Z,100092.17
2019-01-26T07:02:04.821Z,100089.22
2019-01-26T07:04:51.328Z,100096.27
2019-01-26T07:07:20.932Z,100092.00
2019-01-26T07:09:49.603Z,100089.45
2019-01-26T07:12:18.343Z,100083.37
2019-01-26T07:14:46.994Z,100083.20
2019-01-26T07:17:15.641Z,100080.87
2019-01-26T07:19:44.295Z,100081.34
2019-01-26T07:22:13.254Z,100080.77
2019-01-26T07:24:42.732Z,100082.85
2019-01-26T07:27:11.653Z,100078.33
2019-01-26T07:29:40.797Z,100078.73
2019-01-26T07:32:09.469Z,100081.25
2019-01-26T07:34:38.431Z,100093.75
2019-01-26T07:37:07.428Z,100091.00
2019-01-26T07:39:36.423Z,100083.22
2019-01-26T07:42:05.261Z,100071.67
2019-01-26T07:44:34.236Z,100076.00
2019-01-26T07:47:03.191Z,100071.30
2019-01-26T07:49:31.821Z,100079.17
2019-01-26T07:52:01.179Z,100072.40
2019-01-26T07:54:29.818Z,100076.73
2019-01-26T07:56:58.757Z,100083.45
2019-01-26T07:59:27.749Z,100082.23
2019-01-26T08:01:56.392Z,100080.20
2019-01-26T08:04:25.428Z,100081.02
2019-01-26T08:06:54.433Z,100083.86
2019-01-26T08:09:23.143Z,100080.05
2019-01-26T08:11:52.112Z,100081.67
2019-01-26T08:14:20.771Z,100085.49
2019-01-26T08:16:49.509Z,100085.55
2019-01-26T08:19:18.785Z,100090.30
2019-01-26T08:21:47.407Z,100095.04
2019-01-26T08:24:16.160Z,100091.41
2019-01-26T08:26:45.359Z,100088.45
2019-01-26T08:29:13.989Z,100087.59
2019-01-26T08:31:42.893Z,100090.19
2019-01-26T08:34:11.563Z,100092.39
2019-01-26T08:37:26.173Z,100092.50
2019-01-26T08:41:04.206Z,100091.83
2019-01-26T08:47:22.913Z,100080.73
2019-01-26T08:49:51.970Z,100080.86
2019-01-26T08:52:20.635Z,100080.45
2019-01-26T08:54:49.314Z,100085.09
2019-01-26T08:57:17.950Z,100092.34
2019-01-26T08:59:46.914Z,100101.33
2019-01-26T09:02:45.302Z,100089.38
2019-01-26T09:05:16.030Z,100094.80
2019-01-26T09:07:44.909Z,100084.33
2019-01-26T09:10:13.873Z,100079.44
2019-01-26T09:12:43.117Z,100079.84
2019-01-26T09:15:12.121Z,100085.00
2019-01-26T09:17:40.950Z,100081.36
2019-01-26T09:20:11.784Z,100079.12
2019-01-26T09:22:40.646Z,100073.97
2019-01-26T09:25:09.721Z,100075.19
2019-01-26T09:27:39.153Z,100081.11
2019-01-26T09:30:08.538Z,100068.50
2019-01-26T09:32:37.264Z,100076.20
2019-01-26T09:35:06.119Z,100078.99
2019-01-26T09:37:34.760Z,100079.91
2019-01-26T09:40:04.408Z,100078.87
2019-01-26T09:42:33.109Z,100070.13
2019-01-26T09:45:01.773Z,100067.45
2019-01-26T09:47:30.422Z,100072.96
2019-01-26T09:53:27.497Z,100075.30
2019-01-26T09:55:56.797Z,100070.52
2019-01-26T09:58:25.744Z,100066.69
2019-01-26T10:00:54.488Z,100070.11
2019-01-26T10:03:23.408Z,100066.55
2019-01-26T10:05:52.052Z,100056.06
2019-01-26T10:08:20.987Z,100058.56
2019-01-26T10:10:49.876Z,100064.18
2019-01-26T10:13:18.498Z,100059.21
2019-01-26T10:15:50.936Z,100054.32
2019-01-26T10:18:19.815Z,100058.75
2019-01-26T10:20:59.729Z,100053.95
2019-01-26T10:23:28.630Z,100056.95
2019-01-26T10:26:00.174Z,100055.27
2019-01-26T10:28:29.339Z,100057.39
2019-01-26T10:31:02.394Z,100057.73
2019-01-26T10:33:37.590Z,100050.59
2019-01-26T10:36:25.567Z,100049.65
2019-01-26T10:42:57.453Z,100046.89
2019-01-26T10:45:27.355Z,100056.30
2019-01-26T10:47:56.384Z,100053.64
2019-01-26T10:50:25.375Z,100050.83
2019-01-26T10:52:54.152Z,100047.16
2019-01-26T10:55:23.162Z,100049.25
2019-01-26T10:57:52.023Z,100051.81
2019-01-26T11:00:22.184Z,100045.64
2019-01-26T11:02:51.160Z,100047.52
2019-01-26T11:05:20.260Z,100039.92
2019-01-26T11:07:49.356Z,100037.03
2019-01-26T11:10:18.346Z,100042.91
2019-01-26T11:12:47.076Z,100043.92
2019-01-26T11:15:16.040Z,100039.56
2019-01-26T11:18:26.829Z,100034.73
2019-01-26T11:20:55.757Z,100029.55
2019-01-26T11:23:24.641Z,100027.92
2019-01-26T11:25:53.301Z,100031.69
2019-01-26T11:28:21.983Z,100030.81
2019-01-26T11:30:50.645Z,100028.69
2019-01-26T11:33:19.651Z,100020.09
2019-01-26T11:35:48.353Z,100023.44
2019-01-26T11:38:17.339Z,100017.07
2019-01-26T11:40:46.027Z,100019.05
2019-01-26T11:43:14.769Z,100011.57
2019-01-26T11:46:03.779Z,100007.98
2019-01-26T11:48:35.454Z,99998.91
2019-01-26T11:51:14.922Z,99995.77
2019-01-26T11:53:43.912Z,100006.19
2019-01-26T11:56:37.745Z,99995.84
2019-01-26T11:59:06.661Z,99996.22
2019-01-26T12:01:42.693Z,99988.49
2019-01-26T12:04:19.607Z,99987.11
2019-01-26T12:06:56.509Z,99985.75
2019-01-26T12:09:25.332Z,99988.73
2019-01-26T12:11:54.249Z,99989.86
2019-01-26T12:14:23.598Z,99984.78
2019-01-26T12:16:52.553Z,99987.20
2019-01-26T12:19:22.496Z,99988.48
2019-01-26T12:21:51.540Z,99988.99
2019-01-26T12:24:26.760Z,99987.97
2019-01-26T12:28:18.903Z,99991.27
2019-01-26T12:30:52.676Z,99992.52
2019-01-26T12:33:21.717Z,99992.45
2019-01-26T12:35:50.711Z,99993.93
2019-01-26T12:38:20.413Z,99988.55
2019-01-26T12:40:49.634Z,99988.73
2019-01-26T12:43:18.359Z,99985.75
2019-01-26T12:45:47.305Z,99981.84
2019-01-26T12:48:15.955Z,99979.77
2019-01-26T12:50:44.708Z,99981.43
2019-01-26T12:53:13.687Z,99989.34
2019-01-26T12:55:42.851Z,99985.44
2019-01-26T12:58:11.612Z,99984.34
2019-01-26T13:00:40.368Z,99983.89
2019-01-26T13:03:09.428Z,99984.66
2019-01-26T13:05:38.495Z,99983.44
2019-01-26T13:08:07.615Z,99983.72
2019-01-26T13:10:39.730Z,99979.56
2019-01-26T13:13:08.471Z,99975.39
2019-01-26T13:15:37.564Z,99981.14
2019-01-26T13:18:06.388Z,99977.11
2019-01-26T13:20:35.095Z,99976.23
2019-01-26T13:23:04.535Z,99971.11
2019-01-26T13:25:33.830Z,99972.89
2019-01-26T13:28:02.626Z,99966.53
2019-01-26T13:30:31.679Z,99969.16
2019-01-26T13:33:00.324Z,99968.48
2019-01-26T13:35:29.051Z,99962.91
2019-01-26T13:37:58.080Z,99965.77
2019-01-26T13:40:26.876Z,99964.97
2019-01-26T13:42:55.875Z,99953.86
2019-01-26T13:45:24.902Z,99950.98
2019-01-26T13:47:53.653Z,99954.44
2019-01-26T13:50:22.321Z,99954.78
2019-01-26T13:52:51.570Z,99954.36
2019-01-26T13:55:20.813Z,99950.80
2019-01-26T13:57:49.744Z,99955.67
2019-01-26T14:00:22.987Z,99954.81
2019-01-26T14:02:51.994Z,99951.82
2019-01-26T14:05:21.120Z,99947.60
2019-01-26T14:07:49.777Z,99953.94
2019-01-26T14:10:20.405Z,99948.81
2019-01-26T14:12:49.294Z,99947.19
2019-01-26T14:15:18.547Z,99948.94
2019-01-26T14:17:47.660Z,99942.08
2019-01-26T14:20:24.476Z,99943.47
2019-01-26T14:22:53.469Z,99948.75
2019-01-26T14:25:22.417Z,99941.81
2019-01-26T14:27:53.263Z,99936.44
2019-01-26T14:30:31.262Z,99937.96
2019-01-26T14:33:00.189Z,99937.12
2019-01-26T14:35:29.242Z,99934.58
2019-01-26T14:37:58.115Z,99934.97
2019-01-26T14:40:26.798Z,99937.54
2019-01-26T14:42:58.857Z,99933.64
2019-01-26T14:45:29.175Z,99930.98
2019-01-26T14:47:58.508Z,99934.97
2019-01-26T14:50:27.263Z,99933.78
2019-01-26T14:52:56.030Z,99943.09
2019-01-26T14:55:27.554Z,99932.41
2019-01-26T14:57:56.467Z,99933.64
2019-01-26T15:00:30.715Z,99935.37
2019-01-26T15:02:59.738Z,99939.22
2019-01-26T15:05:29.092Z,99937.07
2019-01-26T15:07:58.267Z,99929.44
2019-01-26T15:10:27.363Z,99937.98
2019-01-26T15:12:56.326Z,99924.55
2019-01-26T15:15:25.384Z,99921.88
2019-01-26T15:17:54.327Z,99920.27
2019-01-26T15:20:27.256Z,99917.63
2019-01-26T15:22:56.655Z,99921.11
2019-01-26T15:25:26.054Z,99915.02
2019-01-26T15:27:54.682Z,99918.09
2019-01-26T15:30:27.641Z,99915.04
2019-01-26T15:32:56.502Z,99912.03
2019-01-26T15:35:25.272Z,99915.34
2019-01-26T15:37:54.058Z,99912.45
2019-01-26T15:40:23.009Z,99914.91
2019-01-26T15:42:53.433Z,99914.59
2019-01-26T15:45:51.818Z,99915.88
2019-01-26T15:48:27.653Z,99913.68
2019-01-26T15:50:56.866Z,99923.05
2019-01-26T15:53:25.516Z,99930.39
2019-01-26T15:55:54.599Z,99919.78
2019-01-26T15:58:23.302Z,99917.53
2019-01-26T16:00:55.324Z,99911.63
2019-01-26T16:03:23.945Z,99912.94
2019-01-26T16:05:52.836Z,99910.22
2019-01-26T16:08:21.449Z,99901.70
2019-01-26T16:10:50.164Z,99902.57
2019-01-26T16:13:19.159Z,99902.17
2019-01-26T16:15:48.163Z,99899.92
2019-01-26T16:18:17.066Z,99894.77
2019-01-26T16:20:45.707Z,99895.31
2019-01-26T16:23:14.647Z,99891.36
2019-01-26T16:25:43.701Z,99899.89
2019-01-26T16:28:12.381Z,99893.50
2019-01-26T16:43:29.038Z,99896.58
2019-01-26T16:45:57.997Z,99894.81
2019-01-26T16:48:26.903Z,99897.86
2019-01-26T16:50:56.031Z,99889.39
2019-01-26T16:53:26.048Z,99889.83
2019-01-26T16:55:54.739Z,99893.03
2019-01-26T16:58:23.426Z,99884.94
2019-01-26T17:00:55.814Z,99874.20
2019-01-26T17:03:25.373Z,99878.79
2019-01-26T17:05:54.278Z,99884.23
2019-01-26T17:08:23.156Z,99883.39
2019-01-26T17:11:03.056Z,99871.89
2019-01-26T17:13:36.232Z,99871.95
2019-01-26T17:16:05.180Z,99864.02
2019-01-26T17:18:34.074Z,99863.81
2019-01-26T17:21:02.962Z,99867.53
2019-01-26T17:23:31.597Z,99854.83
2019-01-26T17:26:00.625Z,99856.18
2019-01-26T17:28:29.754Z,99854.64
2019-01-26T17:30:58.394Z,99855.06
2019-01-26T17:33:27.578Z,99852.50
2019-01-26T17:35:56.467Z,99849.05
2019-01-26T17:38:25.248Z,99854.86
2019-01-26T17:40:54.684Z,99851.40
2019-01-26T17:43:24.061Z,99847.41
2019-01-26T17:45:52.969Z,99844.54
2019-01-26T17:48:21.726Z,99845.73
2019-01-26T17:50:50.595Z,99841.47
2019-01-26T17:53:19.462Z,99843.06
2019-01-26T17:55:48.365Z,99841.81
2019-01-26T17:58:17.021Z,99839.69
2019-01-26T18:00:52.189Z,99846.22
2019-01-26T18:03:21.683Z,99841.73
2019-01-26T18:05:50.717Z,99832.78
2019-01-26T18:08:19.660Z,99834.92
2019-01-26T18:10:48.695Z,99831.55
2019-01-26T18:13:17.779Z,99825.13
2019-01-26T18:15:46.937Z,99819.09
2019-01-26T18:18:16.065Z,99808.48
2019-01-26T18:20:49.293Z,99809.67
2019-01-26T18:23:17.739Z,99802.81
2019-01-26T18:25:46.795Z,99799.45
2019-01-26T18:28:15.614Z,99798.62
2019-01-26T18:30:44.341Z,99799.85
2019-01-26T18:33:13.068Z,99795.56
2019-01-26T18:35:42.037Z,99792.20
2019-01-26T18:38:10.953Z,99791.34
2019-01-26T18:40:39.902Z,99795.61
2019-01-26T18:43:08.781Z,99788.34
2019-01-26T18:45:37.760Z,99791.24
2019-01-26T18:48:07.430Z,99785.56
2019-01-26T18:50:38.082Z,99782.05
2019-01-26T18:53:07.049Z,99779.88
2019-01-26T18:55:35.789Z,99775.98
2019-01-26T18:58:04.734Z,99773.36
2019-01-26T19:00:36.487Z,99770.84
2019-01-26T19:03:21.897Z,99768.62
2019-01-26T19:05:51.614Z,99767.77
2019-01-26T19:08:20.506Z,99761.75
2019-01-26T19:10:49.404Z,99769.44
2019-01-26T19:13:18.114Z,99759.20
2019-01-26T19:15:46.754Z,99757.04
2019-01-26T19:18:15.416Z,99755.28
2019-01-26T19:20:44.507Z,99744.11
2019-01-26T19:23:13.281Z,99747.17
2019-01-26T19:25:42.199Z,99748.40
2019-01-26T19:28:13.980Z,99744.55
2019-01-26T19:30:42.708Z,99737.34
2019-01-26T19:33:11.401Z,99731.73
2019-01-26T19:35:40.658Z,99726.60
2019-01-26T19:38:09.641Z,99727.11
2019-01-26T19:40:38.362Z,99726.25
2019-01-26T19:43:08.725Z,99725.48
2019-01-26T19:45:37.668Z,99730.61
2019-01-26T19:48:06.661Z,99732.09
2019-01-26T19:50:35.318Z,99728.33
2019-01-26T19:53:04.461Z,99726.94
2019-01-26T19:55:33.433Z,99727.06
2019-01-26T19:58:02.417Z,99725.19
2019-01-26T20:00:31.295Z,99718.25
2019-01-26T20:03:00.011Z,99717.37
2019-01-26T20:05:29.078Z,99710.94
2019-01-26T20:07:58.186Z,99698.95
2019-01-26T20:10:27.207Z,99695.52
2019-01-26T20:12:55.837Z,99704.92
2019-01-26T20:15:24.736Z,99699.38
2019-01-26T20:17:53.738Z,99694.24
2019-01-26T20:20:25.501Z,99696.36
2019-01-26T20:22:54.491Z,99691.67
2019-01-26T20:25:23.454Z,99679.72
2019-01-26T20:27:52.349Z,99675.48
2019-01-26T20:30:26.973Z,99679.79
2019-01-26T20:32:56.108Z,99667.39
2019-01-26T20:35:24.818Z,99663.52
2019-01-26T20:37:53.566Z,99655.02
2019-01-26T20:40:23.306Z,99649.88
2019-01-26T20:42:52.254Z,99645.20
2019-01-26T20:45:23.621Z,99652.94
2019-01-26T20:47:52.510Z,99639.33
2019-01-26T20:50:21.293Z,99635.03
2019-01-26T20:52:50.330Z,99627.39
2019-01-26T20:55:21.355Z,99619.25
2019-01-26T20:57:50.381Z,99617.57
2019-01-26T21:00:21.598Z,99609.05
2019-01-26T21:02:50.561Z,99605.23
2019-01-26T21:05:19.196Z,99593.22
2019-01-26T21:07:47.936Z,99590.64
2019-01-26T21:10:19.350Z,99587.77
2019-01-26T21:12:50.050Z,99581.80
2019-01-26T21:15:21.115Z,99583.40
2019-01-26T21:17:50.056Z,99586.70
2019-01-26T21:20:19.728Z,99576.69
2019-01-26T21:22:49.042Z,99576.23
2019-01-26T21:25:17.997Z,99571.94
2019-01-26T21:27:47.095Z,99570.16
2019-01-26T21:30:18.986Z,99557.34
2019-01-26T21:32:47.994Z,99557.78
2019-01-26T21:35:16.697Z,99559.46
2019-01-26T21:37:45.834Z,99554.77
2019-01-26T21:40:25.790Z,99553.09
2019-01-26T21:42:58.675Z,99553.56
2019-01-26T21:45:27.695Z,99558.71
2019-01-26T21:47:56.458Z,99558.69
2019-01-26T21:50:30.068Z,99551.03
2019-01-26T21:52:59.397Z,99547.20
2019-01-26T21:55:29.700Z,99533.52
2019-01-26T21:57:58.861Z,99528.39
2019-01-26T22:00:31.647Z,99526.25
2019-01-26T22:03:06.318Z,99527.55
2019-01-26T22:05:38.080Z,99515.56
2019-01-26T22:08:08.260Z,99519.01
2019-01-26T22:10:40.024Z,99516.88
2019-01-26T22:13:10.381Z,99516.06
2019-01-26T22:15:40.486Z,99510.61
2019-01-26T22:18:10.437Z,99511.80
2019-01-26T22:20:40.237Z,99506.28
2019-01-26T22:23:09.596Z,99500.24
2019-01-26T22:25:39.150Z,99493.38
2019-01-26T22:28:08.398Z,99495.11
2019-01-26T22:30:37.432Z,99494.25
2019-01-26T22:33:06.765Z,99495.94
2019-01-26T22:35:35.938Z,99492.11
2019-01-26T22:38:05.547Z,99492.11
2019-01-26T22:40:36.270Z,99490.39
2019-01-26T22:43:05.571Z,99483.13
2019-01-26T22:45:34.463Z,99485.26
2019-01-26T22:48:03.223Z,99483.99
2019-01-26T22:50:32.569Z,99479.28
2019-01-26T22:53:01.412Z,99474.17
2019-01-26T22:55:31.320Z,99479.72
2019-01-26T22:58:00.312Z,99476.72
2019-01-26T23:00:50.414Z,99475.94
2019-01-26T23:03:21.065Z,99477.17
2019-01-26T23:06:16.045Z,99474.22
2019-01-26T23:08:45.786Z,99464.77
2019-01-26T23:12:01.963Z,99464.41
2019-01-26T23:14:49.079Z,99454.99
2019-01-26T23:17:45.079Z,99456.70
2019-01-26T23:20:24.219Z,99450.72
2019-01-26T23:23:46.587Z,99446.02
2019-01-26T23:26:46.388Z,99442.20
2019-01-26T23:29:55.482Z,99433.19
2019-01-26T23:32:24.388Z,99433.62
2019-01-26T23:34:53.496Z,99428.09
2019-01-26T23:37:22.730Z,99423.38
2019-01-26T23:39:51.583Z,99420.39
2019-01-26T23:42:20.387Z,99414.43
2019-01-26T23:44:49.504Z,99409.30
2019-01-26T23:47:18.132Z,99405.89
2019-01-26T23:49:46.763Z,99402.48
2019-01-26T23:52:15.747Z,99400.34
2019-01-26T23:54:44.409Z,99392.65
2019-01-26T23:57:23.746Z,99391.37
2019-01-26T23:59:53.127Z,99391.02
